Hlavní strana
METAR-TAF:

METAR-TAF

Letiště :

Tegucigalpa, Honduras

zeměpisná šířka: 14-03N, zeměpisná délka: 087-13W, výška: 994 m

Aktuální stav počasí

Zpráva byla vytvořena před 45 minutami, v 16:00 UTC
Severní vítr 10 kt
Teplota 23°C
Vlhkost vzduchu 73%
Tlak 1019 hPa
Viditelnost: 8000 m
Skoro jasno ve výšce 1200 ft
Oblačno až skoro zataženo ve výšce 2600 ft
slabý déšť

METAR: MHTG 191600Z 36010KT 8000 -RA FEW012 BKN026 23/18 Q1019 A3009 NOSIG

Čas: 10:45 (16:45 UTC)

Předpověď počasí

Zpráva byla vytvořena před 6 hodinami a 15 minutami, v 10:30 UTC
Předpověď platná od 19 v 12 UTC do 20 v 12 UTC
Severní vítr 5 kt
Viditelnost 10 km a více
Skoro jasno ve výšce 1000 ft
Oblačno až skoro zataženo ve výšce 2600 ft
Změna
od 19 v 17 UTC do 19 v 19 UTC
Polojasno ve výšce 2800 ft, Vertikální cumulus.
Pravděpodobnost 30% :
Dočasný
od 19 v 23 UTC do 20 v 01 UTC
Viditelnost: 5000 m
Polojasno ve výšce 3000 ft, Cumulonimbus.
bouřka, slabý déšť
Změna
od 20 v 01 UTC do 20 v 03 UTC
Viditelnost 10 km a více
Polojasno ve výšce 2600 ft
Polojasno ve výšce 8000 ft
Změna
od 20 v 07 UTC do 20 v 09 UTC
Severní vítr kt
Viditelnost 10 km a více
Polojasno ve výšce 2600 ft
Skoro jasno ve výšce 2600 ft
Změna
od 19 v 17 UTC do 19 v 19 UTC
Polojasno ve výšce 2800 ft, Vertikální cumulus.
Pravděpodobnost 30% :
Dočasný
od 19 v 22 UTC do 20 v 01 UTC
Viditelnost: 5000 m
Polojasno ve výšce 3000 ft, Cumulonimbus.
bouřka, slabý déšť
Změna
od 20 v 01 UTC do 20 v 03 UTC
Viditelnost 10 km a více
Polojasno ve výšce 2600 ft
Polojasno ve výšce 8000 ft
Změna
od 20 v 07 UTC do 20 v 09 UTC
Severní vítr kt
Viditelnost 10 km a více
Skoro jasno ve výšce 2600 ft
Skoro jasno ve výšce 2400 ft
Změna
od 19 v 18 UTC do 19 v 20 UTC
Severovýchodní vítr 8 kt
Polojasno ve výšce 2400 ft, Vertikální cumulus.
Pravděpodobnost 30% :
Dočasný
od 19 v 22 UTC do 20 v 02 UTC
Viditelnost: 5000 m
Polojasno ve výšce 2600 ft, Cumulonimbus.
Polojasno ve výšce 7000 ft
bouřka, déšť
Změna
od 20 v 02 UTC do 20 v 04 UTC
Viditelnost 10 km a více
Polojasno ve výšce 2400 ft
Oblačno až skoro zataženo ve výšce 7000 ft
Změna
od 20 v 08 UTC do 20 v 10 UTC
Severoseverovýchodní vítr 5 kt
Viditelnost: 7000 m
Skoro jasno ve výšce 2400 ft
Polojasno ve výšce 7000 ft
Skoro jasno ve výšce 2200 ft, Cumulonimbus.
Oblačno až skoro zataženo ve výšce 7000 ft
slabý déšť
Změna
od 19 v 14 UTC do 19 v 16 UTC
Viditelnost 10 km a více
Polojasno ve výšce 2200 ft
Polojasno ve výšce 7000 ft
Pravděpodobnost 30% :
Dočasný
od 19 v 21 UTC do 20 v 03 UTC
Viditelnost: 6000 m
Polojasno ve výšce 2200 ft, Cumulonimbus.
Oblačno až skoro zataženo ve výšce 7000 ft
bouřka, déšť
Změna
od 20 v 03 UTC do 20 v 05 UTC
Viditelnost: 8000 m
Skoro jasno ve výšce 2200 ft, Cumulonimbus.
Oblačno až skoro zataženo ve výšce 7000 ft
přeháňky v blízkosti
Změna
od 20 v 06 UTC do 20 v 08 UTC
Viditelnost 10 km a více
Polojasno ve výšce 2200 ft
Polojasno ve výšce 7000 ft

TAF: MHTG 191030Z 1912/2012 36005KT 9999 FEW010 BKN026 TX29/1921Z TN18/2012Z BECMG 1917/1919 SCT028TCU PROB30 TEMPO 1923/2001 5000 -TSRA SCT030CB BECMG 2001/2003 9999 NSW SCT026 SCT080 BECMG 2007/2009 00000KT SCT026 MHLM 191030Z 1912/2012 00000KT 9999 FEW026 TX34/1921Z TN24/2012Z BECMG 1917/1919 SCT028TCU PROB30 TEMPO 1922/2001 5000 -TSRA SCT030CB BECMG 2001/2003 9999 NSW SCT026 SCT080 BECMG 2007/2009 00000KT FEW026 MHLC 191030Z 1912/2012 00000KT 9999 FEW024 TX32/1921Z TN22/2012Z BECMG 1918/1920 05008KT SCT024TCU PROB30 TEMPO 1922/2002 5000 TSRA SCT026CB SCT070 BECMG 2002/2004 9999 NSW SCT024 BKN070 BECMG 2008/2010 00000KT FEW024 SCT070 MHRO 191030Z 1912/2012 03005KT 7000 -RA FEW022CB BKN070 TX32/1920Z TN27/2012Z BECMG 1914/1916 9999 NSW SCT022 SCT070 PROB30 TEMPO 1921/2003 6000 TSRA SCT022CB BKN070 BECMG 2003/2005 8000 VCSH FEW022CB BKN070 BECMG 2006/2008 9999 NSW SCT022 SCT070

Stav a předpovědi počasí z více než 4 000 letišť (zprávy METAR a TAF).

Červené a žluté tečky na mapě představují dostupné meteorologické stanice.

Když kurzor umístíte na tečku, zobrazí se název stanice.

Pak kliknutím zobrazíte stav a předpověď počasí.

Chcete-li změnit mapu, kliknutím na zelené tlačítko se znaménkem +mapu přiblížíte, kliknutím na zelené tlačítko se znaménkem – mapu oddálíte a kliknutím na zelené šipky přejdete na sousední mapy.


METAR-TAF: